Lesknedalar — FHKS — position and weather

sailwx.info

Track history (hours):
 
Tides and Currents Weather Stations Pressure Air Temp Water Temp Dewpoint Dewpoint Depression Visibility Wind Speed Wind Dir Waves Ship Positions

Lesknedalar

Last reported at 2018-Feb-25 21:11 UTC. Time now 2018-Feb-25 22:07 UTC.
Position N 48°06' W 004°20'.

Length 16 m.

Type: Fishing. MMSI: 228160000.

Date/timePositionNaut miles runAvg speedWind from/ knotsBaromVisibWave heightAir tempDewpointWater temp
2018-Feb-25 21:11N 48°06' W 004°20'0 0.0
2018-Feb-25 21:00N 48°06' W 004°20'0 0.2
2018-Feb-25 20:30N 48°06' W 004°19'2 4.8
2018-Feb-25 20:00N 48°08' W 004°21'1 2.7
2018-Feb-25 19:30N 48°08' W 004°23'4 7.8
2018-Feb-25 19:00N 48°07' W 004°28'0 0.6
2018-Feb-25 18:31N 48°08' W 004°28'2 4.1
2018-Feb-25 18:00N 48°09' W 004°31'1 2.6
2018-Feb-25 17:30N 48°08' W 004°33'0 0.4
2018-Feb-25 17:01N 48°09' W 004°33'0 0.6
2018-Feb-25 16:31N 48°09' W 004°33'4 8.9
2018-Feb-25 16:00N 48°08' W 004°26'5 9.3
2018-Feb-25 15:30N 48°06' W 004°20'  
2018-Feb-22 21:46N 48°06' W 004°19'0 0.0
2018-Feb-22 21:31N 48°06' W 004°19'0 0.0
2018-Feb-22 21:00N 48°06' W 004°19'1 2.0
2018-Feb-22 20:31N 48°07' W 004°20'3 6.7
2018-Feb-22 20:01N 48°10' W 004°22'4 7.6
2018-Feb-22 19:30N 48°12' W 004°26'4 8.1
2018-Feb-22 19:00N 48°10' W 004°31'2 3.3
2018-Feb-22 18:30N 48°08' W 004°32'1 1.1
2018-Feb-22 18:00N 48°09' W 004°32'1 1.9
2018-Feb-22 17:31N 48°09' W 004°33'1 1.9
2018-Feb-22 17:00N 48°09' W 004°32'1 2.2
2018-Feb-22 16:30N 48°09' W 004°30'5 9.2
2018-Feb-22 16:00N 48°08' W 004°24'3 6.7
2018-Feb-22 15:30N 48°06' W 004°19'0 0.0
2018-Feb-21 22:28N 48°06' W 004°19'0 0.0
2018-Feb-21 22:00N 48°06' W 004°19'0 0.6
2018-Feb-21 21:30N 48°06' W 004°19'4 7.4
2018-Feb-21 21:00N 48°09' W 004°22'0 0.3
2018-Feb-21 20:31N 48°09' W 004°22'1 1.8
2018-Feb-21 20:01N 48°10' W 004°21'3 5.3
2018-Feb-21 19:30N 48°11' W 004°25'4 8.9
2018-Feb-21 19:00N 48°09' W 004°31'1 2.7
2018-Feb-21 18:30N 48°09' W 004°33'0 0.3
2018-Feb-21 18:00N 48°09' W 004°33'1 1.8
2018-Feb-21 17:31N 48°09' W 004°31'0 0.9
2018-Feb-21 17:00N 48°09' W 004°31'3 5.3
2018-Feb-21 16:30N 48°07' W 004°28'3 6.2
2018-Feb-21 16:00N 48°07' W 004°23'3 5.1
2018-Feb-21 15:30N 48°06' W 004°19'0 0.0
2018-Feb-21 00:45N 48°06' W 004°19'0 0.0
2018-Feb-21 00:31N 48°06' W 004°19'0 0.1
2018-Feb-21 00:00N 48°06' W 004°19'0 0.0
2018-Feb-20 23:30N 48°06' W 004°19'4 7.5
2018-Feb-20 23:01N 48°09' W 004°22'0 1.0
2018-Feb-20 22:31N 48°10' W 004°22'0 0.2
2018-Feb-20 22:00N 48°10' W 004°22'2 3.6
2018-Feb-20 21:30N 48°11' W 004°23'0 0.3
2018-Feb-20 21:01N 48°11' W 004°23'0 0.1
2018-Feb-20 20:31N 48°11' W 004°23'0 0.5
2018-Feb-20 20:00N 48°11' W 004°23'0 0.3
2018-Feb-20 19:30N 48°11' W 004°23'1 2.7
2018-Feb-20 19:01N 48°10' W 004°23'2 4.2
2018-Feb-20 18:30N 48°08' W 004°22'0 0.8
2018-Feb-20 18:01N 48°08' W 004°22'0 0.2
2018-Feb-20 17:29N 48°08' W 004°22'2 3.6
2018-Feb-20 17:00N 48°09' W 004°19'2 4.3
2018-Feb-20 16:30N 48°10' W 004°21'0 0.6
2018-Feb-20 16:00N 48°11' W 004°22'4 7.6
2018-Feb-20 15:30N 48°07' W 004°19'1 0.1
2018-Feb-19 23:11N 48°06' W 004°20'0 0.0
2018-Feb-19 23:00N 48°06' W 004°20'0 0.0
2018-Feb-19 22:30N 48°06' W 004°20'0 0.0
2018-Feb-19 22:00N 48°06' W 004°20'0 0.1
2018-Feb-19 21:30N 48°06' W 004°20'4 7.3
2018-Feb-19 21:01N 48°09' W 004°21'3 6.8
2018-Feb-19 20:30N 48°12' W 004°24'0 0.1
2018-Feb-19 20:01N 48°12' W 004°24'2 3.8
2018-Feb-19 19:30N 48°12' W 004°27'2 4.4
2018-Feb-19 19:00N 48°11' W 004°30'4 7.9
2018-Feb-19 18:31N 48°09' W 004°25'3 5.7
2018-Feb-19 18:01N 48°08' W 004°21'0 0.7
2018-Feb-19 17:30N 48°07' W 004°22'0 0.4
2018-Feb-19 17:00N 48°07' W 004°22'1 1.2
2018-Feb-19 16:30N 48°08' W 004°22'1 2.7
2018-Feb-19 16:00N 48°08' W 004°21'2 4.1
2018-Feb-19 15:31N 48°06' W 004°19'1 0.0
2018-Feb-18 23:08N 48°06' W 004°20'0 0.0
2018-Feb-18 23:00N 48°06' W 004°20'0 0.1
2018-Feb-18 22:30N 48°06' W 004°19'2 4.0
2018-Feb-18 22:00N 48°07' W 004°22'2 3.7
2018-Feb-18 21:30N 48°08' W 004°24'4 7.4
2018-Feb-18 21:00N 48°11' W 004°20'2 4.4
2018-Feb-18 20:31N 48°12' W 004°23'2 3.4
2018-Feb-18 20:00N 48°11' W 004°21'0 0.9
2018-Feb-18 19:30N 48°11' W 004°22'1 1.2
2018-Feb-18 19:00N 48°11' W 004°21'0 0.3
2018-Feb-18 18:30N 48°11' W 004°21'1 2.6
2018-Feb-18 18:00N 48°10' W 004°20'1 2.0
2018-Feb-18 17:30N 48°10' W 004°19'1 2.6
2018-Feb-18 17:00N 48°11' W 004°20'0 0.2
2018-Feb-18 16:31N 48°11' W 004°20'2 4.4
2018-Feb-18 16:00N 48°09' W 004°21'3 5.3
2018-Feb-18 15:30N 48°06' W 004°19'  
2018-Feb-16 01:55N 48°06' W 004°19'0 0.0
2018-Feb-16 01:30N 48°06' W 004°19'3 5.4
2018-Feb-16 01:00N 48°09' W 004°19'2 3.4
2018-Feb-16 00:30N 48°09' W 004°21'3 6.1
2018-Feb-16 00:00N 48°07' W 004°26'1 2.0
2018-Feb-15 23:29N 48°07' W 004°27'4 8.6
2018-Feb-15 23:00N 48°06' W 004°33'4 8.0
2018-Feb-15 22:30N 48°05' W 004°39'4 9.0
2018-Feb-15 22:01N 48°04' W 004°45'4 7.6
2018-Feb-15 21:30N 48°01' W 004°43'  
Track history (hours):
 
Tides and Currents Weather Stations Pressure Air Temp Water Temp Dewpoint Dewpoint Depression Visibility Wind Speed Wind Dir Waves Ship Positions

Lesknedalar

Last reported at 2018-Feb-25 21:11 UTC. Time now 2018-Feb-25 22:07 UTC.
Position N 48°06' W 004°20'.

Length 16 m.

Type: Fishing. MMSI: 228160000.

Date/timePositionNaut miles runAvg speedWind from/ knotsBaromVisibWave heightAir tempDewpointWater temp
2018-Feb-25 21:11N 48°06' W 004°20'0 0.0
2018-Feb-25 21:00N 48°06' W 004°20'0 0.2
2018-Feb-25 20:30N 48°06' W 004°19'2 4.8
2018-Feb-25 20:00N 48°08' W 004°21'1 2.7
2018-Feb-25 19:30N 48°08' W 004°23'4 7.8
2018-Feb-25 19:00N 48°07' W 004°28'0 0.6
2018-Feb-25 18:31N 48°08' W 004°28'2 4.1
2018-Feb-25 18:00N 48°09' W 004°31'1 2.6
2018-Feb-25 17:30N 48°08' W 004°33'0 0.4
2018-Feb-25 17:01N 48°09' W 004°33'0 0.6
2018-Feb-25 16:31N 48°09' W 004°33'4 8.9
2018-Feb-25 16:00N 48°08' W 004°26'5 9.3
2018-Feb-25 15:30N 48°06' W 004°20'  
2018-Feb-22 21:46N 48°06' W 004°19'0 0.0
2018-Feb-22 21:31N 48°06' W 004°19'0 0.0
2018-Feb-22 21:00N 48°06' W 004°19'1 2.0
2018-Feb-22 20:31N 48°07' W 004°20'3 6.7
2018-Feb-22 20:01N 48°10' W 004°22'4 7.6
2018-Feb-22 19:30N 48°12' W 004°26'4 8.1
2018-Feb-22 19:00N 48°10' W 004°31'2 3.3
2018-Feb-22 18:30N 48°08' W 004°32'1 1.1
2018-Feb-22 18:00N 48°09' W 004°32'1 1.9
2018-Feb-22 17:31N 48°09' W 004°33'1 1.9
2018-Feb-22 17:00N 48°09' W 004°32'1 2.2
2018-Feb-22 16:30N 48°09' W 004°30'5 9.2
2018-Feb-22 16:00N 48°08' W 004°24'3 6.7
2018-Feb-22 15:30N 48°06' W 004°19'0 0.0
2018-Feb-21 22:28N 48°06' W 004°19'0 0.0
2018-Feb-21 22:00N 48°06' W 004°19'0 0.6
2018-Feb-21 21:30N 48°06' W 004°19'4 7.4
2018-Feb-21 21:00N 48°09' W 004°22'0 0.3
2018-Feb-21 20:31N 48°09' W 004°22'1 1.8
2018-Feb-21 20:01N 48°10' W 004°21'3 5.3
2018-Feb-21 19:30N 48°11' W 004°25'4 8.9
2018-Feb-21 19:00N 48°09' W 004°31'1 2.7
2018-Feb-21 18:30N 48°09' W 004°33'0 0.3
2018-Feb-21 18:00N 48°09' W 004°33'1 1.8
2018-Feb-21 17:31N 48°09' W 004°31'0 0.9
2018-Feb-21 17:00N 48°09' W 004°31'3 5.3
2018-Feb-21 16:30N 48°07' W 004°28'3 6.2
2018-Feb-21 16:00N 48°07' W 004°23'3 5.1
2018-Feb-21 15:30N 48°06' W 004°19'0 0.0
2018-Feb-21 00:45N 48°06' W 004°19'0 0.0
2018-Feb-21 00:31N 48°06' W 004°19'0 0.1
2018-Feb-21 00:00N 48°06' W 004°19'0 0.0
2018-Feb-20 23:30N 48°06' W 004°19'4 7.5
2018-Feb-20 23:01N 48°09' W 004°22'0 1.0
2018-Feb-20 22:31N 48°10' W 004°22'0 0.2
2018-Feb-20 22:00N 48°10' W 004°22'2 3.6
2018-Feb-20 21:30N 48°11' W 004°23'0 0.3
2018-Feb-20 21:01N 48°11' W 004°23'0 0.1
2018-Feb-20 20:31N 48°11' W 004°23'0 0.5
2018-Feb-20 20:00N 48°11' W 004°23'0 0.3
2018-Feb-20 19:30N 48°11' W 004°23'1 2.7
2018-Feb-20 19:01N 48°10' W 004°23'2 4.2
2018-Feb-20 18:30N 48°08' W 004°22'0 0.8
2018-Feb-20 18:01N 48°08' W 004°22'0 0.2
2018-Feb-20 17:29N 48°08' W 004°22'2 3.6
2018-Feb-20 17:00N 48°09' W 004°19'2 4.3
2018-Feb-20 16:30N 48°10' W 004°21'0 0.6
2018-Feb-20 16:00N 48°11' W 004°22'4 7.6
2018-Feb-20 15:30N 48°07' W 004°19'1 0.1
2018-Feb-19 23:11N 48°06' W 004°20'0 0.0
2018-Feb-19 23:00N 48°06' W 004°20'0 0.0
2018-Feb-19 22:30N 48°06' W 004°20'0 0.0
2018-Feb-19 22:00N 48°06' W 004°20'0 0.1
2018-Feb-19 21:30N 48°06' W 004°20'4 7.3
2018-Feb-19 21:01N 48°09' W 004°21'3 6.8
2018-Feb-19 20:30N 48°12' W 004°24'0 0.1
2018-Feb-19 20:01N 48°12' W 004°24'2 3.8
2018-Feb-19 19:30N 48°12' W 004°27'2 4.4
2018-Feb-19 19:00N 48°11' W 004°30'4 7.9
2018-Feb-19 18:31N 48°09' W 004°25'3 5.7
2018-Feb-19 18:01N 48°08' W 004°21'0 0.7
2018-Feb-19 17:30N 48°07' W 004°22'0 0.4
2018-Feb-19 17:00N 48°07' W 004°22'1 1.2
2018-Feb-19 16:30N 48°08' W 004°22'1 2.7
2018-Feb-19 16:00N 48°08' W 004°21'2 4.1
2018-Feb-19 15:31N 48°06' W 004°19'1 0.0
2018-Feb-18 23:08N 48°06' W 004°20'0 0.0
2018-Feb-18 23:00N 48°06' W 004°20'0 0.1
2018-Feb-18 22:30N 48°06' W 004°19'2 4.0
2018-Feb-18 22:00N 48°07' W 004°22'2 3.7
2018-Feb-18 21:30N 48°08' W 004°24'4 7.4
2018-Feb-18 21:00N 48°11' W 004°20'2 4.4
2018-Feb-18 20:31N 48°12' W 004°23'2 3.4
2018-Feb-18 20:00N 48°11' W 004°21'0 0.9
2018-Feb-18 19:30N 48°11' W 004°22'1 1.2
2018-Feb-18 19:00N 48°11' W 004°21'0 0.3
2018-Feb-18 18:30N 48°11' W 004°21'1 2.6
2018-Feb-18 18:00N 48°10' W 004°20'1 2.0
2018-Feb-18 17:30N 48°10' W 004°19'1 2.6
2018-Feb-18 17:00N 48°11' W 004°20'0 0.2
2018-Feb-18 16:31N 48°11' W 004°20'2 4.4
2018-Feb-18 16:00N 48°09' W 004°21'3 5.3
2018-Feb-18 15:30N 48°06' W 004°19'  
2018-Feb-16 01:55N 48°06' W 004°19'0 0.0
2018-Feb-16 01:30N 48°06' W 004°19'3 5.4
2018-Feb-16 01:00N 48°09' W 004°19'2 3.4
2018-Feb-16 00:30N 48°09' W 004°21'3 6.1
2018-Feb-16 00:00N 48°07' W 004°26'1 2.0
2018-Feb-15 23:29N 48°07' W 004°27'4 8.6
2018-Feb-15 23:00N 48°06' W 004°33'4 8.0
2018-Feb-15 22:30N 48°05' W 004°39'4 9.0
2018-Feb-15 22:01N 48°04' W 004°45'4 7.6
2018-Feb-15 21:30N 48°01' W 004°43'  

Dump ship's entire track history